sensor_id;sensor_type;location;lat;lon;timestamp;noise_LAeq;noise_LA_min;noise_LA_max;noise_LA01;noise_LA95
41704;Laerm;861;48.808;9.006;2022-07-09T00:01:03;34.37;33.06;35.82;;
41704;Laerm;861;48.808;9.006;2022-07-09T00:03:30;34.37;33.16;35.86;;
41704;Laerm;861;48.808;9.006;2022-07-09T00:05:56;34.36;32.69;36.17;;
41704;Laerm;861;48.808;9.006;2022-07-09T00:08:23;34.37;32.96;35.57;;
41704;Laerm;861;48.808;9.006;2022-07-09T00:10:49;34.39;33.27;35.72;;
41704;Laerm;861;48.808;9.006;2022-07-09T00:13:15;34.40;33.04;35.50;;
41704;Laerm;861;48.808;9.006;2022-07-09T00:15:41;34.41;32.86;36.35;;
41704;Laerm;861;48.808;9.006;2022-07-09T00:18:08;34.42;32.94;35.82;;
41704;Laerm;861;48.808;9.006;2022-07-09T00:20:35;34.41;33.35;35.78;;
41704;Laerm;861;48.808;9.006;2022-07-09T00:23:01;34.41;33.00;35.61;;
41704;Laerm;861;48.808;9.006;2022-07-09T00:25:27;34.41;33.19;35.67;;
41704;Laerm;861;48.808;9.006;2022-07-09T00:27:53;34.41;32.83;35.53;;
41704;Laerm;861;48.808;9.006;2022-07-09T00:30:19;34.43;33.29;36.24;;
41704;Laerm;861;48.808;9.006;2022-07-09T00:32:46;34.42;33.08;35.68;;
41704;Laerm;861;48.808;9.006;2022-07-09T00:35:12;34.41;33.09;37.96;;
41704;Laerm;861;48.808;9.006;2022-07-09T00:37:38;34.38;33.11;37.00;;
41704;Laerm;861;48.808;9.006;2022-07-09T00:40:06;34.36;32.94;35.89;;
41704;Laerm;861;48.808;9.006;2022-07-09T00:42:32;34.36;33.13;36.77;;
41704;Laerm;861;48.808;9.006;2022-07-09T00:44:59;34.38;33.30;36.71;;
41704;Laerm;861;48.808;9.006;2022-07-09T00:47:25;34.36;33.10;35.48;;
41704;Laerm;861;48.808;9.006;2022-07-09T00:49:52;34.40;32.92;39.20;;
41704;Laerm;861;48.808;9.006;2022-07-09T00:52:21;34.40;33.22;35.70;;
41704;Laerm;861;48.808;9.006;2022-07-09T00:54:48;34.42;33.12;35.58;;
41704;Laerm;861;48.808;9.006;2022-07-09T00:57:16;34.44;33.14;37.54;;
41704;Laerm;861;48.808;9.006;2022-07-09T00:59:46;34.44;32.89;35.64;;
41704;Laerm;861;48.808;9.006;2022-07-09T01:02:13;34.44;33.12;35.75;;
41704;Laerm;861;48.808;9.006;2022-07-09T01:04:40;34.45;33.17;37.12;;
41704;Laerm;861;48.808;9.006;2022-07-09T01:07:06;34.46;33.02;37.41;;
41704;Laerm;861;48.808;9.006;2022-07-09T01:09:33;34.45;33.11;36.31;;
41704;Laerm;861;48.808;9.006;2022-07-09T01:12:01;34.43;33.10;36.22;;
41704;Laerm;861;48.808;9.006;2022-07-09T01:14:28;34.42;33.10;35.97;;
41704;Laerm;861;48.808;9.006;2022-07-09T01:17:05;34.44;33.09;38.15;;
41704;Laerm;861;48.808;9.006;2022-07-09T01:19:34;34.41;33.16;37.37;;
41704;Laerm;861;48.808;9.006;2022-07-09T01:22:02;34.44;33.24;37.51;;
41704;Laerm;861;48.808;9.006;2022-07-09T01:24:29;34.42;33.02;36.85;;
41704;Laerm;861;48.808;9.006;2022-07-09T01:26:55;34.42;33.04;38.45;;
41704;Laerm;861;48.808;9.006;2022-07-09T01:29:22;34.42;33.06;37.20;;
41704;Laerm;861;48.808;9.006;2022-07-09T01:31:48;34.44;33.19;36.70;;
41704;Laerm;861;48.808;9.006;2022-07-09T01:34:15;34.45;33.08;35.49;;
41704;Laerm;861;48.808;9.006;2022-07-09T01:36:41;34.45;33.28;35.65;;
41704;Laerm;861;48.808;9.006;2022-07-09T01:39:07;34.45;33.13;35.88;;
41704;Laerm;861;48.808;9.006;2022-07-09T01:42:29;34.47;33.15;36.88;;
41704;Laerm;861;48.808;9.006;2022-07-09T01:44:55;34.45;33.09;37.56;;
41704;Laerm;861;48.808;9.006;2022-07-09T01:47:21;34.46;33.11;37.73;;
41704;Laerm;861;48.808;9.006;2022-07-09T01:49:47;34.43;33.23;35.82;;
41704;Laerm;861;48.808;9.006;2022-07-09T01:52:14;34.44;33.18;36.16;;
41704;Laerm;861;48.808;9.006;2022-07-09T01:54:40;34.44;33.24;37.38;;
41704;Laerm;861;48.808;9.006;2022-07-09T01:57:06;34.43;33.00;35.63;;
41704;Laerm;861;48.808;9.006;2022-07-09T01:59:33;34.43;33.14;35.73;;
41704;Laerm;861;48.808;9.006;2022-07-09T02:01:59;34.44;33.12;35.69;;
41704;Laerm;861;48.808;9.006;2022-07-09T02:04:25;34.44;33.15;35.57;;
41704;Laerm;861;48.808;9.006;2022-07-09T02:06:51;34.44;33.21;36.14;;
41704;Laerm;861;48.808;9.006;2022-07-09T02:09:17;34.43;33.12;35.62;;
41704;Laerm;861;48.808;9.006;2022-07-09T02:11:44;34.45;33.23;40.95;;
41704;Laerm;861;48.808;9.006;2022-07-09T02:14:10;34.41;33.20;35.98;;
41704;Laerm;861;48.808;9.006;2022-07-09T02:16:36;34.40;33.08;35.76;;
41704;Laerm;861;48.808;9.006;2022-07-09T02:19:02;34.41;32.88;35.86;;
41704;Laerm;861;48.808;9.006;2022-07-09T02:21:29;34.39;33.16;35.96;;
41704;Laerm;861;48.808;9.006;2022-07-09T02:23:55;34.39;33.15;36.24;;
41704;Laerm;861;48.808;9.006;2022-07-09T02:26:28;34.39;33.25;35.61;;
41704;Laerm;861;48.808;9.006;2022-07-09T02:29:00;34.40;33.13;35.83;;
41704;Laerm;861;48.808;9.006;2022-07-09T02:31:27;34.41;33.15;35.87;;
41704;Laerm;861;48.808;9.006;2022-07-09T02:33:53;34.41;33.22;35.60;;
41704;Laerm;861;48.808;9.006;2022-07-09T02:36:20;34.41;32.91;35.59;;
41704;Laerm;861;48.808;9.006;2022-07-09T02:38:46;34.43;33.05;35.49;;
41704;Laerm;861;48.808;9.006;2022-07-09T02:41:12;34.42;33.22;35.64;;
41704;Laerm;861;48.808;9.006;2022-07-09T02:43:38;34.44;33.23;35.75;;
41704;Laerm;861;48.808;9.006;2022-07-09T02:46:05;34.44;33.10;35.62;;
41704;Laerm;861;48.808;9.006;2022-07-09T02:48:31;34.44;32.92;35.65;;
41704;Laerm;861;48.808;9.006;2022-07-09T02:50:57;34.44;33.24;35.77;;
41704;Laerm;861;48.808;9.006;2022-07-09T02:53:24;34.44;33.15;35.64;;
41704;Laerm;861;48.808;9.006;2022-07-09T02:55:50;34.42;33.08;36.63;;
41704;Laerm;861;48.808;9.006;2022-07-09T02:58:16;34.31;33.04;35.67;;
41704;Laerm;861;48.808;9.006;2022-07-09T03:00:42;34.27;33.02;35.61;;
41704;Laerm;861;48.808;9.006;2022-07-09T03:03:09;34.29;32.73;35.65;;
41704;Laerm;861;48.808;9.006;2022-07-09T03:05:35;34.37;33.04;35.69;;
41704;Laerm;861;48.808;9.006;2022-07-09T03:08:03;34.40;33.19;35.61;;
41704;Laerm;861;48.808;9.006;2022-07-09T03:10:29;34.41;33.15;36.00;;
41704;Laerm;861;48.808;9.006;2022-07-09T03:12:55;34.34;33.00;36.51;;
41704;Laerm;861;48.808;9.006;2022-07-09T03:15:21;34.39;33.12;36.85;;
41704;Laerm;861;48.808;9.006;2022-07-09T03:17:49;34.31;33.03;35.71;;
41704;Laerm;861;48.808;9.006;2022-07-09T03:20:15;34.32;33.05;35.47;;
41704;Laerm;861;48.808;9.006;2022-07-09T03:22:42;34.34;33.17;35.62;;
41704;Laerm;861;48.808;9.006;2022-07-09T03:25:09;34.32;33.04;35.44;;
41704;Laerm;861;48.808;9.006;2022-07-09T03:27:36;34.34;33.10;35.68;;
41704;Laerm;861;48.808;9.006;2022-07-09T03:30:05;34.35;32.99;38.28;;
41704;Laerm;861;48.808;9.006;2022-07-09T03:32:32;34.33;33.13;35.91;;
41704;Laerm;861;48.808;9.006;2022-07-09T03:34:58;34.33;33.16;35.61;;
41704;Laerm;861;48.808;9.006;2022-07-09T03:37:25;34.33;33.09;35.60;;
41704;Laerm;861;48.808;9.006;2022-07-09T03:39:51;34.33;33.19;35.70;;
41704;Laerm;861;48.808;9.006;2022-07-09T03:42:17;34.41;33.14;37.36;;
41704;Laerm;861;48.808;9.006;2022-07-09T03:44:43;34.44;33.04;35.57;;
41704;Laerm;861;48.808;9.006;2022-07-09T03:47:10;34.44;32.95;35.67;;
41704;Laerm;861;48.808;9.006;2022-07-09T03:49:36;34.44;33.32;35.68;;
41704;Laerm;861;48.808;9.006;2022-07-09T03:52:02;34.46;33.07;35.65;;
41704;Laerm;861;48.808;9.006;2022-07-09T03:54:29;34.48;33.16;35.68;;
41704;Laerm;861;48.808;9.006;2022-07-09T03:56:55;34.48;33.15;35.62;;
41704;Laerm;861;48.808;9.006;2022-07-09T03:59:21;34.47;33.13;35.65;;
41704;Laerm;861;48.808;9.006;2022-07-09T04:01:47;34.48;33.17;36.42;;
41704;Laerm;861;48.808;9.006;2022-07-09T04:04:13;34.52;32.90;35.62;;
41704;Laerm;861;48.808;9.006;2022-07-09T04:06:39;34.50;33.24;35.68;;
41704;Laerm;861;48.808;9.006;2022-07-09T04:09:05;34.49;33.27;35.55;;
41704;Laerm;861;48.808;9.006;2022-07-09T04:11:34;34.49;33.18;35.74;;
41704;Laerm;861;48.808;9.006;2022-07-09T04:14:02;34.49;33.20;35.94;;
41704;Laerm;861;48.808;9.006;2022-07-09T04:16:29;34.50;33.15;35.61;;
41704;Laerm;861;48.808;9.006;2022-07-09T04:18:56;34.49;33.25;35.74;;
41704;Laerm;861;48.808;9.006;2022-07-09T04:21:22;34.45;33.16;35.52;;
41704;Laerm;861;48.808;9.006;2022-07-09T04:23:51;34.49;33.29;35.75;;
41704;Laerm;861;48.808;9.006;2022-07-09T04:26:18;34.50;33.02;35.85;;
41704;Laerm;861;48.808;9.006;2022-07-09T04:28:47;34.44;32.94;35.52;;
41704;Laerm;861;48.808;9.006;2022-07-09T04:31:13;34.46;33.04;35.73;;
41704;Laerm;861;48.808;9.006;2022-07-09T04:33:44;34.53;33.39;36.05;;
41704;Laerm;861;48.808;9.006;2022-07-09T04:36:11;34.53;33.20;35.96;;
41704;Laerm;861;48.808;9.006;2022-07-09T04:38:37;34.52;33.31;35.68;;
41704;Laerm;861;48.808;9.006;2022-07-09T04:41:05;34.52;33.25;35.80;;
41704;Laerm;861;48.808;9.006;2022-07-09T04:43:32;34.53;33.31;35.69;;
41704;Laerm;861;48.808;9.006;2022-07-09T04:45:59;34.53;33.17;35.73;;
41704;Laerm;861;48.808;9.006;2022-07-09T04:48:26;34.55;33.12;35.70;;
41704;Laerm;861;48.808;9.006;2022-07-09T04:50:53;34.56;32.97;35.81;;
41704;Laerm;861;48.808;9.006;2022-07-09T04:53:19;34.56;33.26;35.82;;
41704;Laerm;861;48.808;9.006;2022-07-09T04:55:45;34.57;33.21;35.67;;
41704;Laerm;861;48.808;9.006;2022-07-09T04:58:11;34.56;33.26;35.90;;
41704;Laerm;861;48.808;9.006;2022-07-09T05:00:37;34.57;33.45;35.80;;
41704;Laerm;861;48.808;9.006;2022-07-09T05:03:03;34.57;33.35;35.79;;
41704;Laerm;861;48.808;9.006;2022-07-09T05:05:30;34.58;33.35;35.78;;
41704;Laerm;861;48.808;9.006;2022-07-09T05:07:56;34.59;33.32;36.74;;
41704;Laerm;861;48.808;9.006;2022-07-09T05:10:22;34.62;33.27;35.84;;
41704;Laerm;861;48.808;9.006;2022-07-09T05:12:48;34.64;33.39;35.80;;
41704;Laerm;861;48.808;9.006;2022-07-09T05:15:14;34.64;33.39;35.91;;
41704;Laerm;861;48.808;9.006;2022-07-09T05:17:41;34.67;33.25;35.87;;
41704;Laerm;861;48.808;9.006;2022-07-09T05:20:09;34.67;33.27;36.06;;
41704;Laerm;861;48.808;9.006;2022-07-09T05:22:38;34.69;33.42;35.87;;
41704;Laerm;861;48.808;9.006;2022-07-09T05:25:06;34.69;33.30;35.90;;
41704;Laerm;861;48.808;9.006;2022-07-09T05:27:46;34.69;33.19;35.95;;
41704;Laerm;861;48.808;9.006;2022-07-09T05:30:14;34.70;33.39;35.88;;
41704;Laerm;861;48.808;9.006;2022-07-09T05:32:42;34.73;33.39;35.95;;
41704;Laerm;861;48.808;9.006;2022-07-09T05:35:10;34.77;33.54;36.16;;
41704;Laerm;861;48.808;9.006;2022-07-09T05:37:44;34.79;33.62;35.94;;
41704;Laerm;861;48.808;9.006;2022-07-09T05:40:12;34.79;33.53;35.94;;
41704;Laerm;861;48.808;9.006;2022-07-09T05:42:39;34.81;33.53;36.06;;
41704;Laerm;861;48.808;9.006;2022-07-09T05:45:07;34.81;33.42;36.24;;
41704;Laerm;861;48.808;9.006;2022-07-09T05:47:34;34.81;33.50;36.10;;
41704;Laerm;861;48.808;9.006;2022-07-09T05:50:00;34.82;33.41;36.04;;
41704;Laerm;861;48.808;9.006;2022-07-09T05:52:26;34.81;33.54;35.94;;
41704;Laerm;861;48.808;9.006;2022-07-09T05:54:52;34.82;33.40;36.13;;
41704;Laerm;861;48.808;9.006;2022-07-09T05:57:18;34.81;33.62;35.99;;
41704;Laerm;861;48.808;9.006;2022-07-09T05:59:45;34.80;33.52;36.03;;
41704;Laerm;861;48.808;9.006;2022-07-09T06:02:11;34.77;33.40;36.02;;
41704;Laerm;861;48.808;9.006;2022-07-09T06:04:37;34.78;33.52;36.06;;
41704;Laerm;861;48.808;9.006;2022-07-09T06:07:04;34.76;33.55;36.16;;
41704;Laerm;861;48.808;9.006;2022-07-09T06:09:31;34.77;33.47;36.04;;
41704;Laerm;861;48.808;9.006;2022-07-09T06:11:57;34.75;33.53;36.02;;
41704;Laerm;861;48.808;9.006;2022-07-09T06:14:24;34.74;33.51;35.91;;
41704;Laerm;861;48.808;9.006;2022-07-09T06:16:50;34.71;33.35;36.22;;
41704;Laerm;861;48.808;9.006;2022-07-09T06:19:16;34.71;33.35;35.91;;
41704;Laerm;861;48.808;9.006;2022-07-09T06:21:43;34.70;33.40;35.94;;
41704;Laerm;861;48.808;9.006;2022-07-09T06:24:09;34.68;33.29;36.01;;
41704;Laerm;861;48.808;9.006;2022-07-09T06:26:35;34.67;33.18;36.04;;
41704;Laerm;861;48.808;9.006;2022-07-09T06:29:01;34.66;33.30;35.94;;
41704;Laerm;861;48.808;9.006;2022-07-09T06:31:27;34.65;33.39;35.97;;
41704;Laerm;861;48.808;9.006;2022-07-09T06:33:53;34.64;33.40;35.87;;
41704;Laerm;861;48.808;9.006;2022-07-09T06:36:20;34.65;33.07;35.92;;
41704;Laerm;861;48.808;9.006;2022-07-09T06:38:46;34.64;33.32;35.80;;
41704;Laerm;861;48.808;9.006;2022-07-09T06:41:33;34.64;33.32;36.07;;
41704;Laerm;861;48.808;9.006;2022-07-09T06:43:59;34.64;33.37;35.82;;
41704;Laerm;861;48.808;9.006;2022-07-09T06:46:25;34.63;33.42;35.85;;
41704;Laerm;861;48.808;9.006;2022-07-09T06:48:52;34.63;33.08;35.81;;
41704;Laerm;861;48.808;9.006;2022-07-09T06:51:18;34.65;33.38;35.83;;
41704;Laerm;861;48.808;9.006;2022-07-09T06:53:44;34.65;33.32;35.88;;
41704;Laerm;861;48.808;9.006;2022-07-09T06:56:10;34.66;33.29;35.90;;
41704;Laerm;861;48.808;9.006;2022-07-09T06:58:36;34.73;33.36;36.02;;
41704;Laerm;861;48.808;9.006;2022-07-09T07:01:03;34.73;33.51;35.98;;
41704;Laerm;861;48.808;9.006;2022-07-09T07:03:29;34.78;33.49;36.16;;
41704;Laerm;861;48.808;9.006;2022-07-09T07:05:55;34.89;33.27;36.22;;
41704;Laerm;861;48.808;9.006;2022-07-09T07:08:21;34.97;33.63;36.26;;
41704;Laerm;861;48.808;9.006;2022-07-09T07:10:47;35.04;33.68;36.35;;
41704;Laerm;861;48.808;9.006;2022-07-09T07:13:13;35.11;33.85;36.27;;
41704;Laerm;861;48.808;9.006;2022-07-09T07:15:40;35.09;33.88;36.29;;
41704;Laerm;861;48.808;9.006;2022-07-09T07:18:06;35.05;33.73;38.44;;
41704;Laerm;861;48.808;9.006;2022-07-09T07:20:32;35.40;34.12;36.75;;
41704;Laerm;861;48.808;9.006;2022-07-09T07:22:58;35.20;33.72;36.47;;
41704;Laerm;861;48.808;9.006;2022-07-09T07:25:24;35.23;34.06;36.34;;
41704;Laerm;861;48.808;9.006;2022-07-09T07:27:50;35.26;33.88;36.43;;
41704;Laerm;861;48.808;9.006;2022-07-09T07:30:17;35.11;33.77;36.35;;
41704;Laerm;861;48.808;9.006;2022-07-09T07:32:46;35.36;33.94;36.58;;
41704;Laerm;861;48.808;9.006;2022-07-09T07:35:12;35.54;34.27;36.79;;
41704;Laerm;861;48.808;9.006;2022-07-09T07:37:38;35.77;34.43;36.93;;
41704;Laerm;861;48.808;9.006;2022-07-09T07:40:06;35.99;34.76;37.53;;
41704;Laerm;861;48.808;9.006;2022-07-09T07:42:32;36.17;34.90;37.32;;
41704;Laerm;861;48.808;9.006;2022-07-09T07:44:58;36.02;34.71;37.35;;
41704;Laerm;861;48.808;9.006;2022-07-09T07:47:24;36.22;34.54;37.70;;
41704;Laerm;861;48.808;9.006;2022-07-09T07:49:50;36.50;35.14;37.50;;
41704;Laerm;861;48.808;9.006;2022-07-09T07:52:17;37.05;35.49;38.54;;
41704;Laerm;861;48.808;9.006;2022-07-09T07:54:47;37.51;36.22;38.74;;
41704;Laerm;861;48.808;9.006;2022-07-09T07:57:13;37.12;35.56;38.32;;
41704;Laerm;861;48.808;9.006;2022-07-09T07:59:39;37.47;35.99;38.70;;
41704;Laerm;861;48.808;9.006;2022-07-09T08:02:06;37.50;36.24;38.71;;
41704;Laerm;861;48.808;9.006;2022-07-09T08:04:33;37.46;36.09;38.63;;
41704;Laerm;861;48.808;9.006;2022-07-09T08:06:59;37.66;36.21;38.80;;
41704;Laerm;861;48.808;9.006;2022-07-09T08:09:25;37.70;36.48;38.91;;
41704;Laerm;861;48.808;9.006;2022-07-09T08:11:51;37.64;36.35;39.30;;
41704;Laerm;861;48.808;9.006;2022-07-09T08:14:17;37.43;36.22;38.58;;
41704;Laerm;861;48.808;9.006;2022-07-09T08:16:43;37.09;35.35;38.49;;
41704;Laerm;861;48.808;9.006;2022-07-09T08:19:09;37.02;35.78;38.24;;
41704;Laerm;861;48.808;9.006;2022-07-09T08:21:36;37.09;35.77;38.08;;
41704;Laerm;861;48.808;9.006;2022-07-09T08:24:02;36.78;35.46;37.94;;
41704;Laerm;861;48.808;9.006;2022-07-09T08:26:31;36.62;35.18;38.03;;
41704;Laerm;861;48.808;9.006;2022-07-09T08:28:57;37.10;35.69;38.51;;
41704;Laerm;861;48.808;9.006;2022-07-09T08:31:24;37.37;36.02;38.54;;
41704;Laerm;861;48.808;9.006;2022-07-09T08:33:51;37.35;35.98;38.55;;
41704;Laerm;861;48.808;9.006;2022-07-09T08:36:19;37.19;35.81;38.46;;
41704;Laerm;861;48.808;9.006;2022-07-09T08:38:45;37.55;36.23;38.74;;
41704;Laerm;861;48.808;9.006;2022-07-09T08:41:13;37.09;35.38;38.43;;
41704;Laerm;861;48.808;9.006;2022-07-09T08:43:41;37.03;35.62;38.24;;
41704;Laerm;861;48.808;9.006;2022-07-09T08:46:09;37.57;36.14;38.89;;
41704;Laerm;861;48.808;9.006;2022-07-09T08:48:37;37.12;35.35;38.77;;
41704;Laerm;861;48.808;9.006;2022-07-09T08:51:04;37.40;35.88;38.67;;
41704;Laerm;861;48.808;9.006;2022-07-09T08:53:31;37.32;35.78;38.53;;
41704;Laerm;861;48.808;9.006;2022-07-09T08:55:58;37.62;36.01;39.12;;
41704;Laerm;861;48.808;9.006;2022-07-09T08:58:24;37.57;36.19;38.89;;
41704;Laerm;861;48.808;9.006;2022-07-09T09:03:20;37.76;36.53;39.19;;
41704;Laerm;861;48.808;9.006;2022-07-09T09:06:10;37.75;36.39;38.99;;
41704;Laerm;861;48.808;9.006;2022-07-09T09:08:44;37.80;36.56;39.07;;
41704;Laerm;861;48.808;9.006;2022-07-09T09:11:23;37.86;36.48;39.05;;
41704;Laerm;861;48.808;9.006;2022-07-09T09:13:51;37.85;36.47;39.10;;
41704;Laerm;861;48.808;9.006;2022-07-09T09:16:20;37.82;36.49;39.02;;
41704;Laerm;861;48.808;9.006;2022-07-09T09:18:52;37.83;36.40;38.97;;
41704;Laerm;861;48.808;9.006;2022-07-09T09:21:25;37.85;36.39;39.46;;
41704;Laerm;861;48.808;9.006;2022-07-09T09:23:56;37.85;36.62;39.27;;
41704;Laerm;861;48.808;9.006;2022-07-09T09:26:28;37.85;36.43;38.98;;
41704;Laerm;861;48.808;9.006;2022-07-09T09:29:02;37.83;36.47;39.29;;
41704;Laerm;861;48.808;9.006;2022-07-09T09:31:37;37.71;36.17;39.41;;
41704;Laerm;861;48.808;9.006;2022-07-09T09:34:12;37.70;36.26;48.53;;
41704;Laerm;861;48.808;9.006;2022-07-09T09:36:48;37.58;35.84;38.97;;
41704;Laerm;861;48.808;9.006;2022-07-09T09:39:25;37.61;36.15;39.03;;
41704;Laerm;861;48.808;9.006;2022-07-09T09:42:01;37.53;36.16;38.84;;
41704;Laerm;861;48.808;9.006;2022-07-09T09:44:34;37.25;35.75;38.75;;
41704;Laerm;861;48.808;9.006;2022-07-09T09:47:07;36.99;35.57;39.84;;
41704;Laerm;861;48.808;9.006;2022-07-09T09:49:41;36.82;35.41;38.34;;
41704;Laerm;861;48.808;9.006;2022-07-09T09:52:10;36.83;35.53;38.09;;
41704;Laerm;861;48.808;9.006;2022-07-09T09:54:41;36.53;35.06;37.85;;
41704;Laerm;861;48.808;9.006;2022-07-09T09:57:13;36.15;34.67;37.67;;
41704;Laerm;861;48.808;9.006;2022-07-09T09:59:44;36.02;34.57;37.98;;
41704;Laerm;861;48.808;9.006;2022-07-09T10:02:14;36.27;34.84;52.20;;
41704;Laerm;861;48.808;9.006;2022-07-09T10:04:44;36.36;34.96;37.99;;
41704;Laerm;861;48.808;9.006;2022-07-09T10:07:17;36.27;34.94;37.59;;
41704;Laerm;861;48.808;9.006;2022-07-09T10:09:59;36.33;34.92;37.57;;
41704;Laerm;861;48.808;9.006;2022-07-09T10:12:36;36.29;34.93;38.98;;
41704;Laerm;861;48.808;9.006;2022-07-09T10:15:26;35.96;34.50;37.32;;
41704;Laerm;861;48.808;9.006;2022-07-09T10:17:54;35.80;34.29;37.16;;
41704;Laerm;861;48.808;9.006;2022-07-09T10:20:34;35.72;34.21;37.10;;
41704;Laerm;861;48.808;9.006;2022-07-09T10:23:04;35.42;33.74;36.84;;
41704;Laerm;861;48.808;9.006;2022-07-09T10:25:45;35.39;34.00;37.14;;
41704;Laerm;861;48.808;9.006;2022-07-09T10:28:22;35.43;34.07;40.14;;
41704;Laerm;861;48.808;9.006;2022-07-09T10:30:51;35.54;34.10;41.65;;
41704;Laerm;861;48.808;9.006;2022-07-09T10:33:33;35.69;34.10;40.02;;
41704;Laerm;861;48.808;9.006;2022-07-09T10:36:14;35.75;34.30;43.93;;
41704;Laerm;861;48.808;9.006;2022-07-09T10:38:55;35.77;34.35;39.06;;
41704;Laerm;861;48.808;9.006;2022-07-09T10:41:24;35.92;34.55;37.16;;
41704;Laerm;861;48.808;9.006;2022-07-09T10:43:52;36.03;34.67;41.87;;
41704;Laerm;861;48.808;9.006;2022-07-09T10:46:20;36.14;34.77;41.80;;
41704;Laerm;861;48.808;9.006;2022-07-09T10:48:47;36.16;34.78;39.84;;
41704;Laerm;861;48.808;9.006;2022-07-09T10:51:22;36.22;34.86;37.55;;
41704;Laerm;861;48.808;9.006;2022-07-09T10:53:50;36.34;35.07;39.70;;
41704;Laerm;861;48.808;9.006;2022-07-09T10:56:22;36.62;35.18;41.57;;
41704;Laerm;861;48.808;9.006;2022-07-09T10:58:50;36.38;34.96;41.95;;
41704;Laerm;861;48.808;9.006;2022-07-09T11:01:24;36.10;34.74;38.84;;
41704;Laerm;861;48.808;9.006;2022-07-09T11:03:53;36.08;34.64;43.14;;
41704;Laerm;861;48.808;9.006;2022-07-09T11:06:20;35.98;34.58;37.27;;
41704;Laerm;861;48.808;9.006;2022-07-09T11:08:46;35.85;34.32;37.14;;
41704;Laerm;861;48.808;9.006;2022-07-09T11:11:23;35.77;34.18;42.17;;
41704;Laerm;861;48.808;9.006;2022-07-09T11:13:56;35.65;34.24;42.41;;
41704;Laerm;861;48.808;9.006;2022-07-09T11:16:26;35.64;34.25;37.02;;
41704;Laerm;861;48.808;9.006;2022-07-09T11:18:53;35.74;34.24;39.86;;
41704;Laerm;861;48.808;9.006;2022-07-09T11:21:25;35.87;34.63;37.09;;
41704;Laerm;861;48.808;9.006;2022-07-09T11:23:51;35.92;34.65;38.38;;
41704;Laerm;861;48.808;9.006;2022-07-09T11:26:18;35.96;34.63;37.50;;
41704;Laerm;861;48.808;9.006;2022-07-09T11:28:45;36.04;34.51;37.95;;
41704;Laerm;861;48.808;9.006;2022-07-09T11:31:13;36.07;34.57;37.28;;
41704;Laerm;861;48.808;9.006;2022-07-09T11:33:39;36.10;34.70;37.57;;
41704;Laerm;861;48.808;9.006;2022-07-09T11:36:36;36.40;34.62;42.47;;
41704;Laerm;861;48.808;9.006;2022-07-09T11:39:02;36.26;34.76;41.87;;
41704;Laerm;861;48.808;9.006;2022-07-09T11:41:49;36.30;34.83;39.86;;
41704;Laerm;861;48.808;9.006;2022-07-09T11:47:12;36.48;34.94;42.18;;
41704;Laerm;861;48.808;9.006;2022-07-09T11:49:45;36.35;34.83;37.58;;
41704;Laerm;861;48.808;9.006;2022-07-09T11:52:25;36.25;34.98;37.76;;
41704;Laerm;861;48.808;9.006;2022-07-09T11:55:00;36.28;34.74;37.61;;
41704;Laerm;861;48.808;9.006;2022-07-09T11:57:31;35.83;34.07;37.30;;
41704;Laerm;861;48.808;9.006;2022-07-09T11:59:59;35.42;33.70;47.68;;
41704;Laerm;861;48.808;9.006;2022-07-09T12:02:31;35.76;33.48;54.91;;
41704;Laerm;861;48.808;9.006;2022-07-09T12:05:07;35.13;33.66;44.10;;
41704;Laerm;861;48.808;9.006;2022-07-09T12:07:35;35.30;33.90;37.34;;
41704;Laerm;861;48.808;9.006;2022-07-09T12:10:10;35.38;34.06;36.82;;
41704;Laerm;861;48.808;9.006;2022-07-09T12:12:37;35.44;34.07;36.88;;
41704;Laerm;861;48.808;9.006;2022-07-09T12:15:07;35.48;34.12;36.89;;
41704;Laerm;861;48.808;9.006;2022-07-09T12:17:34;35.55;33.89;36.97;;
41704;Laerm;861;48.808;9.006;2022-07-09T12:20:03;35.77;34.22;37.12;;
41704;Laerm;861;48.808;9.006;2022-07-09T12:22:33;35.99;33.89;51.57;;
41704;Laerm;861;48.808;9.006;2022-07-09T12:24:59;35.69;33.90;53.28;;
41704;Laerm;861;48.808;9.006;2022-07-09T12:27:25;35.22;33.69;39.59;;
41704;Laerm;861;48.808;9.006;2022-07-09T12:29:51;35.37;33.78;45.49;;
41704;Laerm;861;48.808;9.006;2022-07-09T12:32:17;35.18;33.74;36.70;;
41704;Laerm;861;48.808;9.006;2022-07-09T12:34:43;35.80;33.70;43.17;;
41704;Laerm;861;48.808;9.006;2022-07-09T12:37:10;35.39;34.00;40.59;;
41704;Laerm;861;48.808;9.006;2022-07-09T12:39:36;35.14;33.61;43.58;;
41704;Laerm;861;48.808;9.006;2022-07-09T12:42:03;34.94;33.70;36.58;;
41704;Laerm;861;48.808;9.006;2022-07-09T12:44:29;35.38;33.68;36.74;;
41704;Laerm;861;48.808;9.006;2022-07-09T12:46:56;35.42;33.68;37.96;;
41704;Laerm;861;48.808;9.006;2022-07-09T12:49:22;35.37;33.81;37.18;;
41704;Laerm;861;48.808;9.006;2022-07-09T12:51:48;35.10;33.67;36.46;;
41704;Laerm;861;48.808;9.006;2022-07-09T12:54:14;34.72;33.22;39.05;;
41704;Laerm;861;48.808;9.006;2022-07-09T12:56:41;34.42;32.93;38.52;;
41704;Laerm;861;48.808;9.006;2022-07-09T12:59:07;35.10;33.15;48.54;;
41704;Laerm;861;48.808;9.006;2022-07-09T13:01:33;34.89;33.67;39.87;;
41704;Laerm;861;48.808;9.006;2022-07-09T13:03:59;34.94;33.03;47.44;;
41704;Laerm;861;48.808;9.006;2022-07-09T13:06:25;34.59;33.06;40.71;;
41704;Laerm;861;48.808;9.006;2022-07-09T13:09:08;34.44;33.00;37.64;;
41704;Laerm;861;48.808;9.006;2022-07-09T13:11:38;34.30;32.69;39.21;;
41704;Laerm;861;48.808;9.006;2022-07-09T13:14:06;34.41;32.94;35.88;;
41704;Laerm;861;48.808;9.006;2022-07-09T13:16:38;34.59;32.94;37.66;;
41704;Laerm;861;48.808;9.006;2022-07-09T13:19:05;34.95;33.59;36.54;;
41704;Laerm;861;48.808;9.006;2022-07-09T13:21:31;34.79;33.38;38.48;;
41704;Laerm;861;48.808;9.006;2022-07-09T13:23:57;34.77;33.17;44.59;;
41704;Laerm;861;48.808;9.006;2022-07-09T13:26:24;34.65;33.29;40.49;;
41704;Laerm;861;48.808;9.006;2022-07-09T13:28:50;34.78;33.15;44.51;;
41704;Laerm;861;48.808;9.006;2022-07-09T13:31:16;34.80;33.40;39.37;;
41704;Laerm;861;48.808;9.006;2022-07-09T13:33:43;34.81;33.44;45.62;;
41704;Laerm;861;48.808;9.006;2022-07-09T13:36:09;34.96;33.55;44.00;;
41704;Laerm;861;48.808;9.006;2022-07-09T13:38:36;34.90;33.48;36.18;;
41704;Laerm;861;48.808;9.006;2022-07-09T13:41:02;34.91;33.63;36.37;;
41704;Laerm;861;48.808;9.006;2022-07-09T13:43:28;34.96;33.61;40.48;;
41704;Laerm;861;48.808;9.006;2022-07-09T13:45:59;35.00;33.36;36.70;;
41704;Laerm;861;48.808;9.006;2022-07-09T13:48:27;34.95;33.14;36.25;;
41704;Laerm;861;48.808;9.006;2022-07-09T13:50:54;34.94;33.72;36.20;;
41704;Laerm;861;48.808;9.006;2022-07-09T13:53:20;34.95;33.63;36.27;;
41704;Laerm;861;48.808;9.006;2022-07-09T13:55:47;35.00;33.62;36.21;;
41704;Laerm;861;48.808;9.006;2022-07-09T13:58:13;35.19;33.74;36.80;;
41704;Laerm;861;48.808;9.006;2022-07-09T14:00:40;35.25;33.82;49.63;;
41704;Laerm;861;48.808;9.006;2022-07-09T14:03:06;35.27;33.66;45.18;;
41704;Laerm;861;48.808;9.006;2022-07-09T14:05:35;35.24;33.90;46.03;;
41704;Laerm;861;48.808;9.006;2022-07-09T14:08:04;35.14;33.69;38.11;;
41704;Laerm;861;48.808;9.006;2022-07-09T14:10:33;35.24;33.89;41.02;;
41704;Laerm;861;48.808;9.006;2022-07-09T14:13:00;35.24;33.60;39.05;;
41704;Laerm;861;48.808;9.006;2022-07-09T14:15:26;35.29;33.85;40.63;;
41704;Laerm;861;48.808;9.006;2022-07-09T14:17:53;35.61;33.86;42.93;;
41704;Laerm;861;48.808;9.006;2022-07-09T14:20:19;35.20;33.80;41.29;;